sensor_id;sensor_type;location;lat;lon;timestamp;P1;durP1;ratioP1;P2;durP2;ratioP2
13319;SDS011;59599;47.608;12.190;2024-01-15T05:01:00;8.90;;;5.97;;
13319;SDS011;59599;47.608;12.190;2024-01-15T05:03:26;8.67;;;5.83;;
13319;SDS011;59599;47.608;12.190;2024-01-15T05:05:52;8.53;;;5.90;;
13319;SDS011;59599;47.608;12.190;2024-01-15T05:08:18;9.40;;;5.40;;
13319;SDS011;59599;47.608;12.190;2024-01-15T05:10:44;10.33;;;5.87;;
13319;SDS011;59599;47.608;12.190;2024-01-15T05:13:10;8.60;;;6.27;;
13319;SDS011;59599;47.608;12.190;2024-01-15T05:15:36;7.23;;;5.03;;
13319;SDS011;59599;47.608;12.190;2024-01-15T05:18:02;7.13;;;5.60;;
13319;SDS011;59599;47.608;12.190;2024-01-15T05:20:28;7.77;;;5.80;;
13319;SDS011;59599;47.608;12.190;2024-01-15T05:22:54;7.37;;;5.43;;
13319;SDS011;59599;47.608;12.190;2024-01-15T05:25:20;7.53;;;5.13;;
13319;SDS011;59599;47.608;12.190;2024-01-15T05:27:46;8.47;;;5.07;;
13319;SDS011;59599;47.608;12.190;2024-01-15T05:30:11;8.60;;;5.30;;
13319;SDS011;59599;47.608;12.190;2024-01-15T05:32:37;7.87;;;4.73;;
13319;SDS011;59599;47.608;12.190;2024-01-15T05:35:03;5.60;;;4.10;;
13319;SDS011;59599;47.608;12.190;2024-01-15T05:37:29;5.90;;;4.63;;
13319;SDS011;59599;47.608;12.190;2024-01-15T05:39:54;6.73;;;4.50;;
13319;SDS011;59599;47.608;12.190;2024-01-15T05:42:20;7.67;;;4.47;;
13319;SDS011;59599;47.608;12.190;2024-01-15T05:44:46;6.57;;;4.63;;
13319;SDS011;59599;47.608;12.190;2024-01-15T05:47:12;5.90;;;4.23;;
13319;SDS011;59599;47.608;12.190;2024-01-15T05:49:38;5.43;;;4.40;;
13319;SDS011;59599;47.608;12.190;2024-01-15T05:52:04;5.47;;;3.80;;
13319;SDS011;59599;47.608;12.190;2024-01-15T05:54:30;5.70;;;3.97;;
13319;SDS011;59599;47.608;12.190;2024-01-15T05:56:55;4.63;;;3.67;;
13319;SDS011;59599;47.608;12.190;2024-01-15T05:59:21;6.50;;;3.63;;
13319;SDS011;59599;47.608;12.190;2024-01-15T06:01:47;6.73;;;4.03;;
13319;SDS011;59599;47.608;12.190;2024-01-15T06:04:13;4.77;;;3.60;;
13319;SDS011;59599;47.608;12.190;2024-01-15T06:06:39;6.73;;;4.53;;
13319;SDS011;59599;47.608;12.190;2024-01-15T06:09:05;6.57;;;4.43;;
13319;SDS011;59599;47.608;12.190;2024-01-15T06:11:31;5.60;;;4.30;;
13319;SDS011;59599;47.608;12.190;2024-01-15T06:13:57;6.93;;;4.77;;
13319;SDS011;59599;47.608;12.190;2024-01-15T06:16:23;6.07;;;4.07;;
13319;SDS011;59599;47.608;12.190;2024-01-15T06:18:49;5.03;;;3.47;;
13319;SDS011;59599;47.608;12.190;2024-01-15T06:21:16;7.27;;;3.73;;
13319;SDS011;59599;47.608;12.190;2024-01-15T06:23:42;5.33;;;3.20;;
13319;SDS011;59599;47.608;12.190;2024-01-15T06:26:08;5.00;;;3.70;;
13319;SDS011;59599;47.608;12.190;2024-01-15T06:28:34;4.67;;;3.57;;
13319;SDS011;59599;47.608;12.190;2024-01-15T06:31:00;5.40;;;3.77;;
13319;SDS011;59599;47.608;12.190;2024-01-15T06:33:26;5.60;;;4.10;;
13319;SDS011;59599;47.608;12.190;2024-01-15T06:35:52;5.87;;;3.93;;
13319;SDS011;59599;47.608;12.190;2024-01-15T06:38:17;7.27;;;3.80;;
13319;SDS011;59599;47.608;12.190;2024-01-15T06:40:43;4.27;;;3.27;;
13319;SDS011;59599;47.608;12.190;2024-01-15T06:43:14;4.60;;;3.10;;
13319;SDS011;59599;47.608;12.190;2024-01-15T06:45:43;4.53;;;3.03;;
13319;SDS011;59599;47.608;12.190;2024-01-15T06:48:09;6.97;;;3.80;;
13319;SDS011;59599;47.608;12.190;2024-01-15T06:50:35;5.67;;;2.97;;
13319;SDS011;59599;47.608;12.190;2024-01-15T06:53:00;4.30;;;3.13;;
13319;SDS011;59599;47.608;12.190;2024-01-15T06:55:26;5.07;;;3.50;;
13319;SDS011;59599;47.608;12.190;2024-01-15T06:57:53;5.80;;;3.57;;
13319;SDS011;59599;47.608;12.190;2024-01-15T07:00:19;5.13;;;3.50;;
13319;SDS011;59599;47.608;12.190;2024-01-15T07:02:45;4.13;;;2.90;;
13319;SDS011;59599;47.608;12.190;2024-01-15T07:05:11;6.07;;;3.90;;
13319;SDS011;59599;47.608;12.190;2024-01-15T07:07:37;7.57;;;4.23;;
13319;SDS011;59599;47.608;12.190;2024-01-15T07:10:03;5.90;;;3.90;;
13319;SDS011;59599;47.608;12.190;2024-01-15T07:12:30;5.33;;;3.47;;
13319;SDS011;59599;47.608;12.190;2024-01-15T07:14:56;5.47;;;3.43;;
13319;SDS011;59599;47.608;12.190;2024-01-15T07:17:22;4.23;;;2.70;;
13319;SDS011;59599;47.608;12.190;2024-01-15T07:19:48;4.67;;;2.80;;
13319;SDS011;59599;47.608;12.190;2024-01-15T07:22:14;5.70;;;3.30;;
13319;SDS011;59599;47.608;12.190;2024-01-15T07:24:42;5.07;;;3.00;;
13319;SDS011;59599;47.608;12.190;2024-01-15T07:27:08;5.03;;;3.13;;
13319;SDS011;59599;47.608;12.190;2024-01-15T07:29:34;4.40;;;2.80;;
13319;SDS011;59599;47.608;12.190;2024-01-15T07:32:02;3.87;;;2.67;;
13319;SDS011;59599;47.608;12.190;2024-01-15T07:34:28;4.17;;;3.33;;
13319;SDS011;59599;47.608;12.190;2024-01-15T07:36:54;6.63;;;3.63;;
13319;SDS011;59599;47.608;12.190;2024-01-15T07:39:20;6.30;;;3.50;;
13319;SDS011;59599;47.608;12.190;2024-01-15T07:41:48;4.00;;;2.97;;
13319;SDS011;59599;47.608;12.190;2024-01-15T07:44:14;2.93;;;2.40;;
13319;SDS011;59599;47.608;12.190;2024-01-15T07:46:43;3.30;;;2.70;;
13319;SDS011;59599;47.608;12.190;2024-01-15T07:49:10;4.27;;;2.97;;
13319;SDS011;59599;47.608;12.190;2024-01-15T07:51:35;3.47;;;2.73;;
13319;SDS011;59599;47.608;12.190;2024-01-15T07:54:01;3.53;;;2.83;;
13319;SDS011;59599;47.608;12.190;2024-01-15T07:56:27;3.67;;;2.70;;
13319;SDS011;59599;47.608;12.190;2024-01-15T07:58:53;3.27;;;2.83;;
13319;SDS011;59599;47.608;12.190;2024-01-15T08:01:19;4.43;;;3.20;;
13319;SDS011;59599;47.608;12.190;2024-01-15T08:03:45;4.50;;;2.40;;
13319;SDS011;59599;47.608;12.190;2024-01-15T08:06:11;4.07;;;2.90;;
13319;SDS011;59599;47.608;12.190;2024-01-15T08:08:37;4.67;;;2.53;;
13319;SDS011;59599;47.608;12.190;2024-01-15T08:11:03;4.30;;;2.67;;
13319;SDS011;59599;47.608;12.190;2024-01-15T08:13:29;2.77;;;2.30;;
13319;SDS011;59599;47.608;12.190;2024-01-15T08:15:55;4.40;;;2.80;;
13319;SDS011;59599;47.608;12.190;2024-01-15T08:18:21;4.37;;;2.87;;
13319;SDS011;59599;47.608;12.190;2024-01-15T08:20:47;4.43;;;2.80;;
13319;SDS011;59599;47.608;12.190;2024-01-15T08:23:15;4.17;;;3.00;;
13319;SDS011;59599;47.608;12.190;2024-01-15T08:25:41;3.80;;;2.70;;
13319;SDS011;59599;47.608;12.190;2024-01-15T08:28:07;3.00;;;2.63;;
13319;SDS011;59599;47.608;12.190;2024-01-15T08:30:33;3.63;;;2.43;;
13319;SDS011;59599;47.608;12.190;2024-01-15T08:32:59;3.53;;;2.80;;
13319;SDS011;59599;47.608;12.190;2024-01-15T08:35:26;5.20;;;3.43;;
13319;SDS011;59599;47.608;12.190;2024-01-15T08:37:52;2.90;;;2.50;;
13319;SDS011;59599;47.608;12.190;2024-01-15T08:40:18;4.00;;;3.03;;
13319;SDS011;59599;47.608;12.190;2024-01-15T08:42:44;3.07;;;2.57;;
13319;SDS011;59599;47.608;12.190;2024-01-15T08:45:15;3.30;;;2.70;;
13319;SDS011;59599;47.608;12.190;2024-01-15T08:47:40;3.07;;;2.40;;
13319;SDS011;59599;47.608;12.190;2024-01-15T08:50:06;3.90;;;2.73;;
13319;SDS011;59599;47.608;12.190;2024-01-15T08:52:35;3.07;;;2.70;;
13319;SDS011;59599;47.608;12.190;2024-01-15T08:55:01;4.10;;;3.00;;
13319;SDS011;59599;47.608;12.190;2024-01-15T08:57:26;5.03;;;3.57;;
13319;SDS011;59599;47.608;12.190;2024-01-15T08:59:53;6.20;;;4.50;;
13319;SDS011;59599;47.608;12.190;2024-01-15T09:02:19;11.27;;;6.10;;
13319;SDS011;59599;47.608;12.190;2024-01-15T09:04:45;6.17;;;4.50;;
13319;SDS011;59599;47.608;12.190;2024-01-15T09:07:11;6.33;;;4.23;;
13319;SDS011;59599;47.608;12.190;2024-01-15T09:09:36;4.40;;;3.53;;
13319;SDS011;59599;47.608;12.190;2024-01-15T09:12:02;5.37;;;3.93;;
13319;SDS011;59599;47.608;12.190;2024-01-15T09:14:28;4.70;;;3.30;;
13319;SDS011;59599;47.608;12.190;2024-01-15T09:16:54;5.47;;;3.70;;
13319;SDS011;59599;47.608;12.190;2024-01-15T09:19:22;3.50;;;3.00;;
13319;SDS011;59599;47.608;12.190;2024-01-15T09:21:47;3.90;;;3.20;;
13319;SDS011;59599;47.608;12.190;2024-01-15T09:24:13;5.73;;;3.43;;
13319;SDS011;59599;47.608;12.190;2024-01-15T09:26:39;3.70;;;3.03;;
13319;SDS011;59599;47.608;12.190;2024-01-15T09:29:05;3.60;;;2.90;;
13319;SDS011;59599;47.608;12.190;2024-01-15T09:31:31;5.97;;;3.20;;
13319;SDS011;59599;47.608;12.190;2024-01-15T09:33:57;4.67;;;2.87;;
13319;SDS011;59599;47.608;12.190;2024-01-15T09:36:25;3.77;;;2.60;;
13319;SDS011;59599;47.608;12.190;2024-01-15T09:38:50;4.60;;;2.87;;
13319;SDS011;59599;47.608;12.190;2024-01-15T09:41:16;4.27;;;2.97;;
13319;SDS011;59599;47.608;12.190;2024-01-15T09:43:42;3.13;;;2.83;;
13319;SDS011;59599;47.608;12.190;2024-01-15T09:46:08;3.10;;;2.60;;
13319;SDS011;59599;47.608;12.190;2024-01-15T09:48:34;4.40;;;3.10;;
13319;SDS011;59599;47.608;12.190;2024-01-15T09:51:01;4.20;;;3.10;;
13319;SDS011;59599;47.608;12.190;2024-01-15T09:53:27;4.57;;;3.13;;
13319;SDS011;59599;47.608;12.190;2024-01-15T09:55:52;4.27;;;3.00;;
13319;SDS011;59599;47.608;12.190;2024-01-15T09:58:18;3.57;;;2.70;;
13319;SDS011;59599;47.608;12.190;2024-01-15T10:00:45;6.57;;;3.23;;
13319;SDS011;59599;47.608;12.190;2024-01-15T10:03:14;5.30;;;3.20;;
13319;SDS011;59599;47.608;12.190;2024-01-15T10:05:40;4.40;;;3.40;;
13319;SDS011;59599;47.608;12.190;2024-01-15T10:08:06;6.93;;;3.47;;
13319;SDS011;59599;47.608;12.190;2024-01-15T10:10:32;5.00;;;2.83;;
13319;SDS011;59599;47.608;12.190;2024-01-15T10:12:58;4.93;;;3.13;;
13319;SDS011;59599;47.608;12.190;2024-01-15T10:15:27;4.10;;;3.03;;
13319;SDS011;59599;47.608;12.190;2024-01-15T10:17:53;4.93;;;2.90;;
13319;SDS011;59599;47.608;12.190;2024-01-15T10:20:19;5.73;;;2.90;;
13319;SDS011;59599;47.608;12.190;2024-01-15T10:22:49;4.70;;;3.43;;
13319;SDS011;59599;47.608;12.190;2024-01-15T10:25:15;5.57;;;3.70;;
13319;SDS011;59599;47.608;12.190;2024-01-15T10:27:41;4.73;;;3.20;;
13319;SDS011;59599;47.608;12.190;2024-01-15T10:30:07;4.13;;;3.20;;
13319;SDS011;59599;47.608;12.190;2024-01-15T10:32:36;4.37;;;3.17;;
13319;SDS011;59599;47.608;12.190;2024-01-15T10:35:03;5.90;;;3.90;;
13319;SDS011;59599;47.608;12.190;2024-01-15T10:37:32;5.93;;;3.10;;
13319;SDS011;59599;47.608;12.190;2024-01-15T10:40:00;5.27;;;3.40;;
13319;SDS011;59599;47.608;12.190;2024-01-15T10:42:26;4.40;;;3.13;;
13319;SDS011;59599;47.608;12.190;2024-01-15T10:44:52;7.50;;;3.67;;
13319;SDS011;59599;47.608;12.190;2024-01-15T10:47:18;4.43;;;3.40;;
13319;SDS011;59599;47.608;12.190;2024-01-15T10:49:44;6.03;;;3.20;;
13319;SDS011;59599;47.608;12.190;2024-01-15T10:52:10;5.97;;;3.70;;
13319;SDS011;59599;47.608;12.190;2024-01-15T10:54:37;5.33;;;3.67;;
13319;SDS011;59599;47.608;12.190;2024-01-15T10:57:03;6.07;;;4.00;;
13319;SDS011;59599;47.608;12.190;2024-01-15T10:59:29;6.00;;;3.90;;
13319;SDS011;59599;47.608;12.190;2024-01-15T11:01:55;4.43;;;3.30;;
13319;SDS011;59599;47.608;12.190;2024-01-15T11:04:21;5.13;;;3.90;;
13319;SDS011;59599;47.608;12.190;2024-01-15T11:06:50;5.30;;;3.87;;
13319;SDS011;59599;47.608;12.190;2024-01-15T11:09:18;6.03;;;4.23;;
13319;SDS011;59599;47.608;12.190;2024-01-15T11:11:46;5.60;;;4.47;;
13319;SDS011;59599;47.608;12.190;2024-01-15T11:16:59;6.13;;;3.93;;
13319;SDS011;59599;47.608;12.190;2024-01-15T11:19:25;7.67;;;3.90;;
13319;SDS011;59599;47.608;12.190;2024-01-15T11:21:51;4.30;;;3.47;;
13319;SDS011;59599;47.608;12.190;2024-01-15T11:24:40;3.60;;;2.63;;
13319;SDS011;59599;47.608;12.190;2024-01-15T11:27:05;4.33;;;3.10;;
13319;SDS011;59599;47.608;12.190;2024-01-15T11:29:35;3.70;;;2.77;;
13319;SDS011;59599;47.608;12.190;2024-01-15T11:32:02;4.47;;;2.90;;
13319;SDS011;59599;47.608;12.190;2024-01-15T11:37:26;4.27;;;3.07;;
13319;SDS011;59599;47.608;12.190;2024-01-15T11:39:52;6.37;;;3.40;;
13319;SDS011;59599;47.608;12.190;2024-01-15T11:42:19;10.43;;;5.57;;
13319;SDS011;59599;47.608;12.190;2024-01-15T11:44:45;11.00;;;5.70;;
13319;SDS011;59599;47.608;12.190;2024-01-15T11:47:12;9.80;;;5.80;;
13319;SDS011;59599;47.608;12.190;2024-01-15T11:52:31;6.33;;;3.93;;
13319;SDS011;59599;47.608;12.190;2024-01-15T11:55:02;5.90;;;4.17;;
13319;SDS011;59599;47.608;12.190;2024-01-15T12:00:12;7.03;;;4.03;;
13319;SDS011;59599;47.608;12.190;2024-01-15T12:02:42;5.37;;;3.27;;
13319;SDS011;59599;47.608;12.190;2024-01-15T12:05:09;8.70;;;4.37;;
13319;SDS011;59599;47.608;12.190;2024-01-15T12:07:37;5.53;;;3.47;;
13319;SDS011;59599;47.608;12.190;2024-01-15T12:10:02;6.53;;;3.97;;
13319;SDS011;59599;47.608;12.190;2024-01-15T12:12:37;5.63;;;3.93;;
13319;SDS011;59599;47.608;12.190;2024-01-15T12:15:04;4.97;;;3.50;;
13319;SDS011;59599;47.608;12.190;2024-01-15T12:17:30;4.20;;;3.30;;
13319;SDS011;59599;47.608;12.190;2024-01-15T12:19:56;6.33;;;4.30;;
13319;SDS011;59599;47.608;12.190;2024-01-15T12:22:22;8.07;;;4.27;;
13319;SDS011;59599;47.608;12.190;2024-01-15T12:24:48;7.33;;;4.47;;
13319;SDS011;59599;47.608;12.190;2024-01-15T12:27:14;5.40;;;3.87;;
13319;SDS011;59599;47.608;12.190;2024-01-15T12:29:40;7.37;;;4.10;;
13319;SDS011;59599;47.608;12.190;2024-01-15T12:32:06;7.43;;;4.83;;
13319;SDS011;59599;47.608;12.190;2024-01-15T12:34:33;8.93;;;4.93;;
13319;SDS011;59599;47.608;12.190;2024-01-15T12:36:59;7.43;;;4.37;;
13319;SDS011;59599;47.608;12.190;2024-01-15T12:39:24;8.87;;;4.63;;
13319;SDS011;59599;47.608;12.190;2024-01-15T12:41:51;6.27;;;4.50;;
13319;SDS011;59599;47.608;12.190;2024-01-15T12:44:17;7.77;;;4.30;;
13319;SDS011;59599;47.608;12.190;2024-01-15T12:46:43;7.13;;;4.87;;
13319;SDS011;59599;47.608;12.190;2024-01-15T12:49:09;8.87;;;5.13;;
13319;SDS011;59599;47.608;12.190;2024-01-15T12:51:35;6.23;;;4.60;;
13319;SDS011;59599;47.608;12.190;2024-01-15T12:54:01;7.83;;;4.80;;
13319;SDS011;59599;47.608;12.190;2024-01-15T12:56:27;8.40;;;5.43;;
13319;SDS011;59599;47.608;12.190;2024-01-15T12:58:53;7.53;;;5.03;;
13319;SDS011;59599;47.608;12.190;2024-01-15T13:01:19;5.40;;;3.87;;
13319;SDS011;59599;47.608;12.190;2024-01-15T13:03:44;5.17;;;4.20;;
13319;SDS011;59599;47.608;12.190;2024-01-15T13:06:10;6.30;;;3.90;;
13319;SDS011;59599;47.608;12.190;2024-01-15T13:08:36;6.33;;;4.50;;
13319;SDS011;59599;47.608;12.190;2024-01-15T13:11:01;9.20;;;5.23;;
13319;SDS011;59599;47.608;12.190;2024-01-15T13:13:28;13.47;;;7.83;;
13319;SDS011;59599;47.608;12.190;2024-01-15T13:15:55;9.00;;;6.10;;
13319;SDS011;59599;47.608;12.190;2024-01-15T13:18:21;8.03;;;5.70;;
13319;SDS011;59599;47.608;12.190;2024-01-15T13:20:47;10.43;;;5.47;;
13319;SDS011;59599;47.608;12.190;2024-01-15T13:23:13;6.63;;;4.60;;
13319;SDS011;59599;47.608;12.190;2024-01-15T13:25:39;7.10;;;5.20;;
13319;SDS011;59599;47.608;12.190;2024-01-15T13:28:06;7.80;;;4.57;;
13319;SDS011;59599;47.608;12.190;2024-01-15T13:30:33;6.70;;;5.03;;
13319;SDS011;59599;47.608;12.190;2024-01-15T13:32:58;5.37;;;4.13;;
13319;SDS011;59599;47.608;12.190;2024-01-15T13:35:29;8.03;;;4.80;;
13319;SDS011;59599;47.608;12.190;2024-01-15T13:37:54;6.30;;;4.77;;
13319;SDS011;59599;47.608;12.190;2024-01-15T13:40:20;8.07;;;5.30;;
13319;SDS011;59599;47.608;12.190;2024-01-15T13:42:46;10.37;;;6.70;;
13319;SDS011;59599;47.608;12.190;2024-01-15T13:45:12;11.00;;;6.40;;
13319;SDS011;59599;47.608;12.190;2024-01-15T13:47:41;9.57;;;6.30;;
13319;SDS011;59599;47.608;12.190;2024-01-15T13:50:08;9.87;;;6.20;;
13319;SDS011;59599;47.608;12.190;2024-01-15T13:52:34;8.87;;;6.30;;
13319;SDS011;59599;47.608;12.190;2024-01-15T13:55:00;9.27;;;6.03;;
13319;SDS011;59599;47.608;12.190;2024-01-15T13:57:26;8.90;;;5.30;;
13319;SDS011;59599;47.608;12.190;2024-01-15T13:59:52;9.70;;;6.37;;
13319;SDS011;59599;47.608;12.190;2024-01-15T14:02:18;7.97;;;5.40;;
13319;SDS011;59599;47.608;12.190;2024-01-15T14:04:45;9.87;;;6.07;;
13319;SDS011;59599;47.608;12.190;2024-01-15T14:07:11;12.50;;;5.97;;
13319;SDS011;59599;47.608;12.190;2024-01-15T14:09:37;8.00;;;4.97;;
13319;SDS011;59599;47.608;12.190;2024-01-15T14:12:03;9.80;;;4.33;;
13319;SDS011;59599;47.608;12.190;2024-01-15T14:14:29;9.83;;;4.57;;
13319;SDS011;59599;47.608;12.190;2024-01-15T14:16:54;12.73;;;5.93;;
13319;SDS011;59599;47.608;12.190;2024-01-15T14:19:20;8.53;;;6.13;;
13319;SDS011;59599;47.608;12.190;2024-01-15T14:21:46;10.10;;;6.37;;
13319;SDS011;59599;47.608;12.190;2024-01-15T14:24:12;7.47;;;5.20;;
13319;SDS011;59599;47.608;12.190;2024-01-15T14:26:39;3.23;;;2.17;;
13319;SDS011;59599;47.608;12.190;2024-01-15T14:29:05;3.37;;;2.50;;
13319;SDS011;59599;47.608;12.190;2024-01-15T14:31:31;3.10;;;2.40;;
13319;SDS011;59599;47.608;12.190;2024-01-15T14:33:58;4.70;;;2.40;;
13319;SDS011;59599;47.608;12.190;2024-01-15T14:36:24;7.00;;;2.70;;
13319;SDS011;59599;47.608;12.190;2024-01-15T14:38:49;5.80;;;3.10;;
13319;SDS011;59599;47.608;12.190;2024-01-15T14:41:16;7.57;;;4.77;;
13319;SDS011;59599;47.608;12.190;2024-01-15T14:43:44;9.57;;;4.13;;
13319;SDS011;59599;47.608;12.190;2024-01-15T14:46:10;12.30;;;5.20;;
13319;SDS011;59599;47.608;12.190;2024-01-15T14:48:36;7.40;;;4.80;;
13319;SDS011;59599;47.608;12.190;2024-01-15T14:51:01;12.30;;;5.40;;
13319;SDS011;59599;47.608;12.190;2024-01-15T14:53:28;13.97;;;5.50;;
13319;SDS011;59599;47.608;12.190;2024-01-15T14:55:53;9.63;;;5.13;;
13319;SDS011;59599;47.608;12.190;2024-01-15T14:58:19;13.77;;;5.63;;
13319;SDS011;59599;47.608;12.190;2024-01-15T15:00:45;9.27;;;5.03;;
13319;SDS011;59599;47.608;12.190;2024-01-15T15:03:11;8.73;;;4.90;;
13319;SDS011;59599;47.608;12.190;2024-01-15T15:05:40;9.33;;;5.73;;
13319;SDS011;59599;47.608;12.190;2024-01-15T15:08:06;6.93;;;5.07;;
13319;SDS011;59599;47.608;12.190;2024-01-15T15:10:36;6.93;;;4.60;;
13319;SDS011;59599;47.608;12.190;2024-01-15T15:13:04;7.83;;;4.77;;
13319;SDS011;59599;47.608;12.190;2024-01-15T15:15:29;12.80;;;7.57;;
13319;SDS011;59599;47.608;12.190;2024-01-15T15:17:55;6.97;;;4.37;;
13319;SDS011;59599;47.608;12.190;2024-01-15T15:20:21;5.37;;;3.23;;
13319;SDS011;59599;47.608;12.190;2024-01-15T15:22:47;3.53;;;2.30;;
13319;SDS011;59599;47.608;12.190;2024-01-15T15:25:13;3.53;;;2.47;;
13319;SDS011;59599;47.608;12.190;2024-01-15T15:27:39;4.10;;;2.70;;
13319;SDS011;59599;47.608;12.190;2024-01-15T15:30:05;4.23;;;2.80;;
13319;SDS011;59599;47.608;12.190;2024-01-15T15:32:32;4.83;;;3.50;;
13319;SDS011;59599;47.608;12.190;2024-01-15T15:34:58;5.20;;;3.93;;
13319;SDS011;59599;47.608;12.190;2024-01-15T15:37:24;9.63;;;4.87;;
13319;SDS011;59599;47.608;12.190;2024-01-15T15:39:49;6.80;;;4.70;;
13319;SDS011;59599;47.608;12.190;2024-01-15T15:42:15;6.63;;;4.97;;
13319;SDS011;59599;47.608;12.190;2024-01-15T15:44:40;8.07;;;5.40;;
13319;SDS011;59599;47.608;12.190;2024-01-15T15:47:11;8.73;;;4.43;;
13319;SDS011;59599;47.608;12.190;2024-01-15T15:49:37;7.47;;;5.00;;
13319;SDS011;59599;47.608;12.190;2024-01-15T15:52:03;7.40;;;5.47;;
13319;SDS011;59599;47.608;12.190;2024-01-15T15:54:29;7.47;;;5.03;;
13319;SDS011;59599;47.608;12.190;2024-01-15T15:56:54;11.30;;;5.63;;
13319;SDS011;59599;47.608;12.190;2024-01-15T15:59:20;12.63;;;6.67;;
13319;SDS011;59599;47.608;12.190;2024-01-15T16:01:47;11.30;;;6.60;;
13319;SDS011;59599;47.608;12.190;2024-01-15T16:04:13;8.00;;;5.77;;
13319;SDS011;59599;47.608;12.190;2024-01-15T16:06:40;10.47;;;6.30;;
13319;SDS011;59599;47.608;12.190;2024-01-15T16:09:06;8.87;;;6.23;;
13319;SDS011;59599;47.608;12.190;2024-01-15T16:11:32;8.13;;;5.80;;
13319;SDS011;59599;47.608;12.190;2024-01-15T16:13:58;9.47;;;6.37;;
13319;SDS011;59599;47.608;12.190;2024-01-15T16:16:23;11.40;;;5.90;;
13319;SDS011;59599;47.608;12.190;2024-01-15T16:18:49;12.13;;;6.90;;
13319;SDS011;59599;47.608;12.190;2024-01-15T16:21:16;9.13;;;6.03;;
13319;SDS011;59599;47.608;12.190;2024-01-15T16:23:41;12.10;;;6.23;;
13319;SDS011;59599;47.608;12.190;2024-01-15T16:26:07;8.47;;;6.20;;
13319;SDS011;59599;47.608;12.190;2024-01-15T16:28:33;10.10;;;6.57;;
13319;SDS011;59599;47.608;12.190;2024-01-15T16:30:59;10.10;;;6.10;;
13319;SDS011;59599;47.608;12.190;2024-01-15T16:33:25;9.00;;;6.00;;
13319;SDS011;59599;47.608;12.190;2024-01-15T16:35:52;6.60;;;4.80;;
13319;SDS011;59599;47.608;12.190;2024-01-15T16:38:17;7.33;;;5.50;;
13319;SDS011;59599;47.608;12.190;2024-01-15T16:40:43;8.43;;;5.93;;
13319;SDS011;59599;47.608;12.190;2024-01-15T16:43:09;7.90;;;5.50;;
13319;SDS011;59599;47.608;12.190;2024-01-15T16:45:35;8.63;;;4.83;;
13319;SDS011;59599;47.608;12.190;2024-01-15T16:48:01;8.07;;;4.70;;
13319;SDS011;59599;47.608;12.190;2024-01-15T16:50:27;8.83;;;5.73;;
13319;SDS011;59599;47.608;12.190;2024-01-15T16:52:53;8.37;;;5.30;;
13319;SDS011;59599;47.608;12.190;2024-01-15T16:55:19;8.30;;;5.10;;
13319;SDS011;59599;47.608;12.190;2024-01-15T16:57:45;8.33;;;5.30;;
13319;SDS011;59599;47.608;12.190;2024-01-15T17:00:12;12.23;;;7.83;;
13319;SDS011;59599;47.608;12.190;2024-01-15T17:02:38;13.07;;;8.73;;
13319;SDS011;59599;47.608;12.190;2024-01-15T17:05:04;11.10;;;7.33;;
13319;SDS011;59599;47.608;12.190;2024-01-15T17:07:30;6.97;;;5.30;;
13319;SDS011;59599;47.608;12.190;2024-01-15T17:09:56;6.77;;;5.00;;
13319;SDS011;59599;47.608;12.190;2024-01-15T17:12:22;6.73;;;5.03;;
13319;SDS011;59599;47.608;12.190;2024-01-15T17:14:48;6.77;;;4.97;;
13319;SDS011;59599;47.608;12.190;2024-01-15T17:17:14;8.37;;;4.87;;
13319;SDS011;59599;47.608;12.190;2024-01-15T17:19:41;6.00;;;4.80;;
13319;SDS011;59599;47.608;12.190;2024-01-15T17:22:07;4.67;;;4.13;;
13319;SDS011;59599;47.608;12.190;2024-01-15T17:24:32;15.47;;;8.63;;
13319;SDS011;59599;47.608;12.190;2024-01-15T17:26:58;19.23;;;11.20;;
13319;SDS011;59599;47.608;12.190;2024-01-15T17:29:24;16.40;;;10.80;;
13319;SDS011;59599;47.608;12.190;2024-01-15T17:31:50;13.53;;;10.20;;
13319;SDS011;59599;47.608;12.190;2024-01-15T17:34:16;15.13;;;9.30;;
13319;SDS011;59599;47.608;12.190;2024-01-15T17:36:42;16.43;;;8.87;;
13319;SDS011;59599;47.608;12.190;2024-01-15T17:39:08;11.70;;;8.10;;
13319;SDS011;59599;47.608;12.190;2024-01-15T17:41:34;15.97;;;8.67;;
13319;SDS011;59599;47.608;12.190;2024-01-15T17:44:00;12.33;;;8.97;;
13319;SDS011;59599;47.608;12.190;2024-01-15T17:46:26;13.87;;;9.97;;
13319;SDS011;59599;47.608;12.190;2024-01-15T17:48:53;17.97;;;10.20;;
13319;SDS011;59599;47.608;12.190;2024-01-15T17:51:21;13.73;;;9.07;;
13319;SDS011;59599;47.608;12.190;2024-01-15T17:53:48;18.70;;;12.20;;
13319;SDS011;59599;47.608;12.190;2024-01-15T17:56:14;17.03;;;10.43;;
13319;SDS011;59599;47.608;12.190;2024-01-15T17:58:40;13.97;;;10.23;;
13319;SDS011;59599;47.608;12.190;2024-01-15T18:01:08;17.47;;;10.20;;
13319;SDS011;59599;47.608;12.190;2024-01-15T18:03:33;13.33;;;9.50;;
13319;SDS011;59599;47.608;12.190;2024-01-15T18:06:00;15.07;;;10.37;;
13319;SDS011;59599;47.608;12.190;2024-01-15T18:08:26;17.80;;;11.50;;
13319;SDS011;59599;47.608;12.190;2024-01-15T18:10:51;33.57;;;19.57;;
13319;SDS011;59599;47.608;12.190;2024-01-15T18:13:17;24.33;;;14.53;;
13319;SDS011;59599;47.608;12.190;2024-01-15T18:15:43;23.50;;;15.93;;
13319;SDS011;59599;47.608;12.190;2024-01-15T18:18:09;20.23;;;15.63;;
13319;SDS011;59599;47.608;12.190;2024-01-15T18:20:35;22.13;;;14.77;;
13319;SDS011;59599;47.608;12.190;2024-01-15T18:23:01;16.57;;;10.40;;
13319;SDS011;59599;47.608;12.190;2024-01-15T18:25:28;14.13;;;9.63;;
13319;SDS011;59599;47.608;12.190;2024-01-15T18:27:53;12.00;;;7.73;;
13319;SDS011;59599;47.608;12.190;2024-01-15T18:30:19;8.87;;;5.73;;
13319;SDS011;59599;47.608;12.190;2024-01-15T18:32:46;6.07;;;4.10;;
13319;SDS011;59599;47.608;12.190;2024-01-15T18:35:11;5.90;;;4.07;;
13319;SDS011;59599;47.608;12.190;2024-01-15T18:37:37;6.40;;;4.20;;
13319;SDS011;59599;47.608;12.190;2024-01-15T18:40:04;6.73;;;4.43;;
13319;SDS011;59599;47.608;12.190;2024-01-15T18:42:31;14.60;;;7.77;;
13319;SDS011;59599;47.608;12.190;2024-01-15T18:44:56;15.10;;;8.37;;
13319;SDS011;59599;47.608;12.190;2024-01-15T18:47:22;13.57;;;8.30;;
13319;SDS011;59599;47.608;12.190;2024-01-15T18:49:48;10.00;;;6.93;;
13319;SDS011;59599;47.608;12.190;2024-01-15T18:52:14;14.57;;;9.03;;
13319;SDS011;59599;47.608;12.190;2024-01-15T18:54:41;7.97;;;5.03;;
13319;SDS011;59599;47.608;12.190;2024-01-15T18:57:07;8.30;;;5.63;;
13319;SDS011;59599;47.608;12.190;2024-01-15T18:59:34;4.90;;;3.50;;
13319;SDS011;59599;47.608;12.190;2024-01-15T19:02:02;5.57;;;3.23;;
13319;SDS011;59599;47.608;12.190;2024-01-15T19:04:28;4.73;;;2.73;;
13319;SDS011;59599;47.608;12.190;2024-01-15T19:06:54;4.50;;;2.53;;
13319;SDS011;59599;47.608;12.190;2024-01-15T19:09:20;4.73;;;3.10;;
13319;SDS011;59599;47.608;12.190;2024-01-15T19:11:45;3.20;;;2.47;;
13319;SDS011;59599;47.608;12.190;2024-01-15T19:14:11;4.37;;;3.00;;
13319;SDS011;59599;47.608;12.190;2024-01-15T19:16:37;4.07;;;2.43;;
13319;SDS011;59599;47.608;12.190;2024-01-15T19:19:02;4.40;;;2.30;;
13319;SDS011;59599;47.608;12.190;2024-01-15T19:21:28;3.27;;;2.33;;
13319;SDS011;59599;47.608;12.190;2024-01-15T19:23:55;4.50;;;2.33;;
13319;SDS011;59599;47.608;12.190;2024-01-15T19:26:21;4.53;;;2.40;;
13319;SDS011;59599;47.608;12.190;2024-01-15T19:28:47;3.43;;;2.57;;
13319;SDS011;59599;47.608;12.190;2024-01-15T19:31:13;5.67;;;2.30;;
13319;SDS011;59599;47.608;12.190;2024-01-15T19:33:39;3.43;;;2.77;;
13319;SDS011;59599;47.608;12.190;2024-01-15T19:36:05;4.27;;;2.47;;